sensor_id;sensor_type;location;lat;lon;timestamp;temperature;humidity
15815;DHT22;8008;50.024;8.172;2023-03-31T03:02:06;11.10;99.90
15815;DHT22;8008;50.024;8.172;2023-03-31T03:04:52;11.10;99.90
15815;DHT22;8008;50.024;8.172;2023-03-31T03:07:31;11.00;99.90
15815;DHT22;8008;50.024;8.172;2023-03-31T03:10:05;10.90;99.90
15815;DHT22;8008;50.024;8.172;2023-03-31T03:12:41;11.00;99.90
15815;DHT22;8008;50.024;8.172;2023-03-31T03:15:13;10.90;99.90
15815;DHT22;8008;50.024;8.172;2023-03-31T03:17:46;10.90;99.90
15815;DHT22;8008;50.024;8.172;2023-03-31T03:20:15;10.90;99.90
15815;DHT22;8008;50.024;8.172;2023-03-31T03:22:45;10.90;99.90
15815;DHT22;8008;50.024;8.172;2023-03-31T03:25:14;10.80;99.90
15815;DHT22;8008;50.024;8.172;2023-03-31T03:27:43;10.90;99.90
15815;DHT22;8008;50.024;8.172;2023-03-31T03:30:12;10.90;99.90
15815;DHT22;8008;50.024;8.172;2023-03-31T03:32:41;10.90;99.90
15815;DHT22;8008;50.024;8.172;2023-03-31T03:35:10;10.90;99.90
15815;DHT22;8008;50.024;8.172;2023-03-31T03:37:38;10.90;99.90
15815;DHT22;8008;50.024;8.172;2023-03-31T03:40:08;10.90;99.90
15815;DHT22;8008;50.024;8.172;2023-03-31T03:42:36;11.00;99.90
15815;DHT22;8008;50.024;8.172;2023-03-31T03:45:05;10.90;99.90
15815;DHT22;8008;50.024;8.172;2023-03-31T03:47:33;10.90;99.90
15815;DHT22;8008;50.024;8.172;2023-03-31T03:50:03;10.90;99.90
15815;DHT22;8008;50.024;8.172;2023-03-31T03:52:32;10.90;99.90
15815;DHT22;8008;50.024;8.172;2023-03-31T03:55:01;10.90;99.90
15815;DHT22;8008;50.024;8.172;2023-03-31T03:57:29;10.90;99.90
15815;DHT22;8008;50.024;8.172;2023-03-31T03:59:57;10.90;99.90
15815;DHT22;8008;50.024;8.172;2023-03-31T04:02:25;10.80;99.90
15815;DHT22;8008;50.024;8.172;2023-03-31T04:04:54;10.80;99.90
15815;DHT22;8008;50.024;8.172;2023-03-31T04:07:22;10.80;99.90
15815;DHT22;8008;50.024;8.172;2023-03-31T04:09:51;10.90;99.90
15815;DHT22;8008;50.024;8.172;2023-03-31T04:12:19;10.80;99.90
15815;DHT22;8008;50.024;8.172;2023-03-31T04:14:47;10.90;99.90
15815;DHT22;8008;50.024;8.172;2023-03-31T04:17:15;10.90;99.90
15815;DHT22;8008;50.024;8.172;2023-03-31T04:19:43;10.90;99.90
15815;DHT22;8008;50.024;8.172;2023-03-31T04:22:16;10.90;99.90
15815;DHT22;8008;50.024;8.172;2023-03-31T04:24:46;10.90;99.90
15815;DHT22;8008;50.024;8.172;2023-03-31T04:27:19;10.90;99.90
15815;DHT22;8008;50.024;8.172;2023-03-31T04:29:48;10.90;99.90
15815;DHT22;8008;50.024;8.172;2023-03-31T04:32:20;10.90;99.90
15815;DHT22;8008;50.024;8.172;2023-03-31T04:34:48;10.80;99.90
15815;DHT22;8008;50.024;8.172;2023-03-31T04:37:17;10.90;99.90
15815;DHT22;8008;50.024;8.172;2023-03-31T04:39:45;10.90;99.90
15815;DHT22;8008;50.024;8.172;2023-03-31T04:42:16;10.90;99.90
15815;DHT22;8008;50.024;8.172;2023-03-31T04:44:45;11.00;99.90
15815;DHT22;8008;50.024;8.172;2023-03-31T04:47:13;10.90;99.90
15815;DHT22;8008;50.024;8.172;2023-03-31T04:49:41;10.80;99.90
15815;DHT22;8008;50.024;8.172;2023-03-31T04:52:08;10.80;99.90
15815;DHT22;8008;50.024;8.172;2023-03-31T04:54:36;10.80;99.90
15815;DHT22;8008;50.024;8.172;2023-03-31T04:57:04;10.80;99.90
15815;DHT22;8008;50.024;8.172;2023-03-31T04:59:32;10.70;99.90
15815;DHT22;8008;50.024;8.172;2023-03-31T05:02:01;10.70;99.90
15815;DHT22;8008;50.024;8.172;2023-03-31T05:04:29;10.70;99.90
15815;DHT22;8008;50.024;8.172;2023-03-31T05:06:57;10.70;99.90
15815;DHT22;8008;50.024;8.172;2023-03-31T05:09:25;10.80;99.90
15815;DHT22;8008;50.024;8.172;2023-03-31T05:11:53;10.80;99.90
15815;DHT22;8008;50.024;8.172;2023-03-31T05:14:21;10.80;99.90
15815;DHT22;8008;50.024;8.172;2023-03-31T05:16:49;10.90;99.90
15815;DHT22;8008;50.024;8.172;2023-03-31T05:19:18;10.80;99.90
15815;DHT22;8008;50.024;8.172;2023-03-31T05:21:46;10.90;99.90
15815;DHT22;8008;50.024;8.172;2023-03-31T05:24:14;10.90;99.90
15815;DHT22;8008;50.024;8.172;2023-03-31T05:26:42;10.90;99.90
15815;DHT22;8008;50.024;8.172;2023-03-31T05:29:14;10.80;99.90
15815;DHT22;8008;50.024;8.172;2023-03-31T05:31:42;10.90;99.90
15815;DHT22;8008;50.024;8.172;2023-03-31T05:34:10;10.80;99.90
15815;DHT22;8008;50.024;8.172;2023-03-31T05:36:39;10.90;99.90
15815;DHT22;8008;50.024;8.172;2023-03-31T05:39:09;10.90;99.90
15815;DHT22;8008;50.024;8.172;2023-03-31T05:41:37;10.90;99.90
15815;DHT22;8008;50.024;8.172;2023-03-31T05:44:04;10.90;99.90
15815;DHT22;8008;50.024;8.172;2023-03-31T05:46:33;10.90;99.90
15815;DHT22;8008;50.024;8.172;2023-03-31T05:49:01;10.80;99.90
15815;DHT22;8008;50.024;8.172;2023-03-31T05:51:29;10.90;99.90
15815;DHT22;8008;50.024;8.172;2023-03-31T05:53:58;10.90;99.90
15815;DHT22;8008;50.024;8.172;2023-03-31T05:56:26;10.90;99.90
15815;DHT22;8008;50.024;8.172;2023-03-31T05:58:54;10.90;99.90
15815;DHT22;8008;50.024;8.172;2023-03-31T06:01:23;10.90;99.90
15815;DHT22;8008;50.024;8.172;2023-03-31T06:03:51;10.90;99.90
15815;DHT22;8008;50.024;8.172;2023-03-31T06:06:19;10.90;99.90
15815;DHT22;8008;50.024;8.172;2023-03-31T06:08:48;10.90;99.90
15815;DHT22;8008;50.024;8.172;2023-03-31T06:11:19;11.00;99.90
15815;DHT22;8008;50.024;8.172;2023-03-31T06:13:47;10.90;99.90
15815;DHT22;8008;50.024;8.172;2023-03-31T06:16:16;11.00;99.90
15815;DHT22;8008;50.024;8.172;2023-03-31T06:18:44;11.00;99.90
15815;DHT22;8008;50.024;8.172;2023-03-31T06:21:14;10.90;99.90
15815;DHT22;8008;50.024;8.172;2023-03-31T06:23:43;11.00;99.90
15815;DHT22;8008;50.024;8.172;2023-03-31T06:26:13;11.00;99.90
15815;DHT22;8008;50.024;8.172;2023-03-31T06:28:43;10.90;99.90
15815;DHT22;8008;50.024;8.172;2023-03-31T06:31:13;10.90;99.90
15815;DHT22;8008;50.024;8.172;2023-03-31T06:33:42;10.90;99.90
15815;DHT22;8008;50.024;8.172;2023-03-31T06:36:12;10.90;99.90
15815;DHT22;8008;50.024;8.172;2023-03-31T06:38:41;10.90;99.90
15815;DHT22;8008;50.024;8.172;2023-03-31T06:41:12;10.90;99.90
15815;DHT22;8008;50.024;8.172;2023-03-31T06:43:40;10.90;99.90
15815;DHT22;8008;50.024;8.172;2023-03-31T06:46:09;10.90;99.90
15815;DHT22;8008;50.024;8.172;2023-03-31T06:48:38;10.90;99.90
15815;DHT22;8008;50.024;8.172;2023-03-31T06:51:08;10.90;99.90
15815;DHT22;8008;50.024;8.172;2023-03-31T06:53:36;10.80;99.90
15815;DHT22;8008;50.024;8.172;2023-03-31T06:56:04;10.80;99.90
15815;DHT22;8008;50.024;8.172;2023-03-31T06:58:33;10.70;99.90
15815;DHT22;8008;50.024;8.172;2023-03-31T07:01:01;10.70;99.90
15815;DHT22;8008;50.024;8.172;2023-03-31T07:03:32;10.60;99.90
15815;DHT22;8008;50.024;8.172;2023-03-31T07:06:00;10.50;99.90
15815;DHT22;8008;50.024;8.172;2023-03-31T07:08:28;10.30;99.90
15815;DHT22;8008;50.024;8.172;2023-03-31T07:10:57;10.30;99.90
15815;DHT22;8008;50.024;8.172;2023-03-31T07:13:26;10.40;99.90
15815;DHT22;8008;50.024;8.172;2023-03-31T07:15:54;10.30;99.90
15815;DHT22;8008;50.024;8.172;2023-03-31T07:18:23;10.20;99.90
15815;DHT22;8008;50.024;8.172;2023-03-31T07:21:02;10.20;99.90
15815;DHT22;8008;50.024;8.172;2023-03-31T07:23:35;10.20;99.90
15815;DHT22;8008;50.024;8.172;2023-03-31T07:26:03;10.30;99.90
15815;DHT22;8008;50.024;8.172;2023-03-31T07:28:32;10.20;99.90
15815;DHT22;8008;50.024;8.172;2023-03-31T07:31:00;10.30;99.90
15815;DHT22;8008;50.024;8.172;2023-03-31T07:33:27;10.20;99.90
15815;DHT22;8008;50.024;8.172;2023-03-31T07:35:55;10.20;99.90
15815;DHT22;8008;50.024;8.172;2023-03-31T07:38:38;10.30;99.90
15815;DHT22;8008;50.024;8.172;2023-03-31T07:41:09;10.50;99.90
15815;DHT22;8008;50.024;8.172;2023-03-31T07:43:37;10.60;99.90
15815;DHT22;8008;50.024;8.172;2023-03-31T07:46:06;10.60;99.90
15815;DHT22;8008;50.024;8.172;2023-03-31T07:48:40;10.60;99.90
15815;DHT22;8008;50.024;8.172;2023-03-31T07:51:09;10.70;99.90
15815;DHT22;8008;50.024;8.172;2023-03-31T07:53:38;10.50;99.90
15815;DHT22;8008;50.024;8.172;2023-03-31T07:56:06;10.50;99.90
15815;DHT22;8008;50.024;8.172;2023-03-31T07:58:34;10.40;99.90
15815;DHT22;8008;50.024;8.172;2023-03-31T08:01:03;10.40;99.90
15815;DHT22;8008;50.024;8.172;2023-03-31T08:03:31;10.40;99.90
15815;DHT22;8008;50.024;8.172;2023-03-31T08:06:00;10.50;99.90
15815;DHT22;8008;50.024;8.172;2023-03-31T08:08:28;10.50;99.90
15815;DHT22;8008;50.024;8.172;2023-03-31T08:10:57;10.60;99.90
15815;DHT22;8008;50.024;8.172;2023-03-31T08:13:25;10.70;99.90
15815;DHT22;8008;50.024;8.172;2023-03-31T08:15:53;10.70;99.90
15815;DHT22;8008;50.024;8.172;2023-03-31T08:18:21;10.70;99.90
15815;DHT22;8008;50.024;8.172;2023-03-31T08:20:49;10.70;99.90
15815;DHT22;8008;50.024;8.172;2023-03-31T08:23:17;10.70;99.90
15815;DHT22;8008;50.024;8.172;2023-03-31T08:25:45;10.80;99.90
15815;DHT22;8008;50.024;8.172;2023-03-31T08:28:14;10.70;99.90
15815;DHT22;8008;50.024;8.172;2023-03-31T08:30:42;10.80;99.90
15815;DHT22;8008;50.024;8.172;2023-03-31T08:33:11;10.90;99.90
15815;DHT22;8008;50.024;8.172;2023-03-31T08:35:39;11.00;99.90
15815;DHT22;8008;50.024;8.172;2023-03-31T08:38:07;11.00;99.90
15815;DHT22;8008;50.024;8.172;2023-03-31T08:40:39;11.10;99.90
15815;DHT22;8008;50.024;8.172;2023-03-31T08:43:11;11.30;99.90
15815;DHT22;8008;50.024;8.172;2023-03-31T08:45:43;11.40;99.90
15815;DHT22;8008;50.024;8.172;2023-03-31T08:48:19;11.50;99.90
15815;DHT22;8008;50.024;8.172;2023-03-31T08:50:53;11.60;99.90
15815;DHT22;8008;50.024;8.172;2023-03-31T08:53:25;11.70;99.90
15815;DHT22;8008;50.024;8.172;2023-03-31T08:55:56;11.80;99.90
15815;DHT22;8008;50.024;8.172;2023-03-31T08:58:32;11.90;99.90
15815;DHT22;8008;50.024;8.172;2023-03-31T09:01:07;11.90;99.90
15815;DHT22;8008;50.024;8.172;2023-03-31T09:03:44;11.90;99.90
15815;DHT22;8008;50.024;8.172;2023-03-31T09:06:22;11.90;99.90
15815;DHT22;8008;50.024;8.172;2023-03-31T09:08:59;11.90;99.90
15815;DHT22;8008;50.024;8.172;2023-03-31T09:11:34;12.00;99.90
15815;DHT22;8008;50.024;8.172;2023-03-31T09:14:12;12.00;99.90
15815;DHT22;8008;50.024;8.172;2023-03-31T09:16:49;12.20;99.90
15815;DHT22;8008;50.024;8.172;2023-03-31T09:19:34;12.20;99.90
15815;DHT22;8008;50.024;8.172;2023-03-31T09:22:05;12.40;99.90
15815;DHT22;8008;50.024;8.172;2023-03-31T09:24:45;12.50;99.90
15815;DHT22;8008;50.024;8.172;2023-03-31T09:27:14;12.70;99.90
15815;DHT22;8008;50.024;8.172;2023-03-31T09:29:51;12.80;99.90
15815;DHT22;8008;50.024;8.172;2023-03-31T09:32:24;12.90;99.90
15815;DHT22;8008;50.024;8.172;2023-03-31T09:34:59;13.00;99.90
15815;DHT22;8008;50.024;8.172;2023-03-31T09:37:30;13.10;99.90
15815;DHT22;8008;50.024;8.172;2023-03-31T09:39:59;13.10;99.90
15815;DHT22;8008;50.024;8.172;2023-03-31T09:42:33;13.00;99.90
15815;DHT22;8008;50.024;8.172;2023-03-31T09:45:04;13.00;99.90
15815;DHT22;8008;50.024;8.172;2023-03-31T09:47:38;13.00;99.90
15815;DHT22;8008;50.024;8.172;2023-03-31T09:50:11;13.00;99.90
15815;DHT22;8008;50.024;8.172;2023-03-31T09:52:43;13.00;99.90
15815;DHT22;8008;50.024;8.172;2023-03-31T09:55:21;12.90;99.90
15815;DHT22;8008;50.024;8.172;2023-03-31T09:58:06;12.90;99.90
15815;DHT22;8008;50.024;8.172;2023-03-31T10:00:39;12.80;99.90
15815;DHT22;8008;50.024;8.172;2023-03-31T10:03:12;12.80;99.90
15815;DHT22;8008;50.024;8.172;2023-03-31T10:05:48;12.60;99.90
15815;DHT22;8008;50.024;8.172;2023-03-31T10:08:23;12.00;99.90
15815;DHT22;8008;50.024;8.172;2023-03-31T10:11:08;11.00;99.90
15815;DHT22;8008;50.024;8.172;2023-03-31T10:13:43;10.80;99.90
15815;DHT22;8008;50.024;8.172;2023-03-31T10:16:14;10.80;99.90
15815;DHT22;8008;50.024;8.172;2023-03-31T10:18:48;10.60;99.90
15815;DHT22;8008;50.024;8.172;2023-03-31T10:21:21;10.30;99.90
15815;DHT22;8008;50.024;8.172;2023-03-31T10:23:50;10.00;99.90
15815;DHT22;8008;50.024;8.172;2023-03-31T10:26:26;9.90;99.90
15815;DHT22;8008;50.024;8.172;2023-03-31T10:28:56;9.70;99.90
15815;DHT22;8008;50.024;8.172;2023-03-31T10:31:26;9.70;99.90
15815;DHT22;8008;50.024;8.172;2023-03-31T10:34:06;9.70;99.90
15815;DHT22;8008;50.024;8.172;2023-03-31T10:36:35;9.70;99.90
15815;DHT22;8008;50.024;8.172;2023-03-31T10:39:13;9.80;99.90
15815;DHT22;8008;50.024;8.172;2023-03-31T10:41:42;9.90;99.90
15815;DHT22;8008;50.024;8.172;2023-03-31T10:44:30;10.00;99.90
15815;DHT22;8008;50.024;8.172;2023-03-31T10:47:04;10.10;99.90
15815;DHT22;8008;50.024;8.172;2023-03-31T10:49:38;10.30;99.90
15815;DHT22;8008;50.024;8.172;2023-03-31T10:52:20;10.50;99.90
15815;DHT22;8008;50.024;8.172;2023-03-31T10:54:52;10.70;99.90
15815;DHT22;8008;50.024;8.172;2023-03-31T10:57:30;11.10;99.90
15815;DHT22;8008;50.024;8.172;2023-03-31T11:00:17;11.40;99.90
15815;DHT22;8008;50.024;8.172;2023-03-31T11:03:15;11.80;99.90
15815;DHT22;8008;50.024;8.172;2023-03-31T11:05:57;12.10;99.90
15815;DHT22;8008;50.024;8.172;2023-03-31T11:08:43;12.40;99.90
15815;DHT22;8008;50.024;8.172;2023-03-31T11:11:33;12.80;99.90
15815;DHT22;8008;50.024;8.172;2023-03-31T11:14:08;12.90;99.90
15815;DHT22;8008;50.024;8.172;2023-03-31T11:16:47;13.00;99.90
15815;DHT22;8008;50.024;8.172;2023-03-31T11:19:25;13.10;99.90
15815;DHT22;8008;50.024;8.172;2023-03-31T11:22:04;13.30;99.90
15815;DHT22;8008;50.024;8.172;2023-03-31T11:24:49;13.40;99.90
15815;DHT22;8008;50.024;8.172;2023-03-31T11:27:34;13.40;99.90
15815;DHT22;8008;50.024;8.172;2023-03-31T11:30:09;13.20;99.90
15815;DHT22;8008;50.024;8.172;2023-03-31T11:32:47;13.00;99.90
15815;DHT22;8008;50.024;8.172;2023-03-31T11:35:29;12.80;99.90
15815;DHT22;8008;50.024;8.172;2023-03-31T11:41:04;12.60;99.90
15815;DHT22;8008;50.024;8.172;2023-03-31T11:43:39;12.80;99.90
15815;DHT22;8008;50.024;8.172;2023-03-31T11:46:12;13.10;99.90
15815;DHT22;8008;50.024;8.172;2023-03-31T11:48:50;13.10;99.90
15815;DHT22;8008;50.024;8.172;2023-03-31T11:51:25;13.20;99.90
15815;DHT22;8008;50.024;8.172;2023-03-31T11:53:59;13.20;99.90
15815;DHT22;8008;50.024;8.172;2023-03-31T11:56:35;13.20;99.90
15815;DHT22;8008;50.024;8.172;2023-03-31T11:59:08;13.20;99.90
15815;DHT22;8008;50.024;8.172;2023-03-31T12:01:44;13.10;99.90
15815;DHT22;8008;50.024;8.172;2023-03-31T12:04:23;13.10;99.90
15815;DHT22;8008;50.024;8.172;2023-03-31T12:06:57;12.90;99.90
15815;DHT22;8008;50.024;8.172;2023-03-31T12:09:36;12.00;99.90
15815;DHT22;8008;50.024;8.172;2023-03-31T12:12:10;11.00;99.90
15815;DHT22;8008;50.024;8.172;2023-03-31T12:14:45;10.50;99.90
15815;DHT22;8008;50.024;8.172;2023-03-31T12:17:18;10.50;99.90
15815;DHT22;8008;50.024;8.172;2023-03-31T12:19:48;10.50;99.90
15815;DHT22;8008;50.024;8.172;2023-03-31T12:22:21;10.50;99.90
15815;DHT22;8008;50.024;8.172;2023-03-31T12:24:52;10.60;99.90
15815;DHT22;8008;50.024;8.172;2023-03-31T12:27:24;10.70;99.90
15815;DHT22;8008;50.024;8.172;2023-03-31T12:29:56;10.60;99.90
15815;DHT22;8008;50.024;8.172;2023-03-31T12:32:28;10.60;99.90
15815;DHT22;8008;50.024;8.172;2023-03-31T12:35:00;10.80;99.90
15815;DHT22;8008;50.024;8.172;2023-03-31T12:38:06;11.10;99.90
15815;DHT22;8008;50.024;8.172;2023-03-31T12:40:45;11.10;99.90
15815;DHT22;8008;50.024;8.172;2023-03-31T12:43:36;11.10;99.90
15815;DHT22;8008;50.024;8.172;2023-03-31T12:46:25;11.20;99.90
15815;DHT22;8008;50.024;8.172;2023-03-31T12:49:14;11.40;99.90
15815;DHT22;8008;50.024;8.172;2023-03-31T12:51:55;11.60;99.90
15815;DHT22;8008;50.024;8.172;2023-03-31T12:54:54;11.90;99.90
15815;DHT22;8008;50.024;8.172;2023-03-31T12:57:26;12.00;99.90
15815;DHT22;8008;50.024;8.172;2023-03-31T13:00:18;12.20;99.90
15815;DHT22;8008;50.024;8.172;2023-03-31T13:02:47;12.20;99.90
15815;DHT22;8008;50.024;8.172;2023-03-31T13:05:44;12.40;99.90
15815;DHT22;8008;50.024;8.172;2023-03-31T13:08:54;12.70;99.90
15815;DHT22;8008;50.024;8.172;2023-03-31T13:11:36;12.90;99.90
15815;DHT22;8008;50.024;8.172;2023-03-31T13:14:12;13.10;99.90
15815;DHT22;8008;50.024;8.172;2023-03-31T13:16:40;13.00;99.90
15815;DHT22;8008;50.024;8.172;2023-03-31T13:19:12;13.00;99.90
15815;DHT22;8008;50.024;8.172;2023-03-31T13:21:52;13.00;99.90
15815;DHT22;8008;50.024;8.172;2023-03-31T13:24:21;13.00;99.90
15815;DHT22;8008;50.024;8.172;2023-03-31T13:26:50;13.20;99.90
15815;DHT22;8008;50.024;8.172;2023-03-31T13:29:24;13.20;99.90
15815;DHT22;8008;50.024;8.172;2023-03-31T13:32:18;13.20;99.90
15815;DHT22;8008;50.024;8.172;2023-03-31T13:34:51;13.30;99.90
15815;DHT22;8008;50.024;8.172;2023-03-31T13:37:34;13.40;99.90
15815;DHT22;8008;50.024;8.172;2023-03-31T13:43:06;13.40;99.90
15815;DHT22;8008;50.024;8.172;2023-03-31T13:48:48;13.50;99.90
15815;DHT22;8008;50.024;8.172;2023-03-31T13:51:42;13.90;99.90
15815;DHT22;8008;50.024;8.172;2023-03-31T13:57:39;14.00;99.90
15815;DHT22;8008;50.024;8.172;2023-03-31T14:00:28;13.90;99.90
15815;DHT22;8008;50.024;8.172;2023-03-31T14:03:18;14.70;99.90
15815;DHT22;8008;50.024;8.172;2023-03-31T14:05:55;15.80;99.90
15815;DHT22;8008;50.024;8.172;2023-03-31T14:08:32;16.90;99.90
15815;DHT22;8008;50.024;8.172;2023-03-31T14:11:17;17.60;99.90
15815;DHT22;8008;50.024;8.172;2023-03-31T14:13:58;17.60;99.90
15815;DHT22;8008;50.024;8.172;2023-03-31T14:16:28;17.70;99.90
15815;DHT22;8008;50.024;8.172;2023-03-31T14:19:07;17.50;99.90
15815;DHT22;8008;50.024;8.172;2023-03-31T14:22:02;17.80;99.90
15815;DHT22;8008;50.024;8.172;2023-03-31T14:24:38;17.80;99.90
15815;DHT22;8008;50.024;8.172;2023-03-31T14:27:21;18.00;99.90
15815;DHT22;8008;50.024;8.172;2023-03-31T14:30:03;18.00;99.90
15815;DHT22;8008;50.024;8.172;2023-03-31T14:36:08;18.00;99.90
15815;DHT22;8008;50.024;8.172;2023-03-31T14:38:39;16.80;99.90
15815;DHT22;8008;50.024;8.172;2023-03-31T14:41:16;15.90;99.90
15815;DHT22;8008;50.024;8.172;2023-03-31T14:43:48;15.40;99.90
15815;DHT22;8008;50.024;8.172;2023-03-31T14:46:19;14.60;99.90
15815;DHT22;8008;50.024;8.172;2023-03-31T14:48:51;13.60;99.90
15815;DHT22;8008;50.024;8.172;2023-03-31T14:51:25;12.30;99.90
15815;DHT22;8008;50.024;8.172;2023-03-31T14:53:58;11.50;99.90
15815;DHT22;8008;50.024;8.172;2023-03-31T14:56:30;11.30;99.90
15815;DHT22;8008;50.024;8.172;2023-03-31T14:59:02;11.30;99.90
15815;DHT22;8008;50.024;8.172;2023-03-31T15:01:33;11.40;99.90
15815;DHT22;8008;50.024;8.172;2023-03-31T15:04:06;11.40;99.90
15815;DHT22;8008;50.024;8.172;2023-03-31T15:06:35;11.50;99.90
15815;DHT22;8008;50.024;8.172;2023-03-31T15:09:08;11.60;99.90
15815;DHT22;8008;50.024;8.172;2023-03-31T15:11:39;11.70;99.90
15815;DHT22;8008;50.024;8.172;2023-03-31T15:14:08;11.80;99.90
15815;DHT22;8008;50.024;8.172;2023-03-31T15:16:39;12.00;99.90
15815;DHT22;8008;50.024;8.172;2023-03-31T15:19:14;12.10;99.90
15815;DHT22;8008;50.024;8.172;2023-03-31T15:21:43;12.10;99.90
15815;DHT22;8008;50.024;8.172;2023-03-31T15:24:13;12.30;99.90
15815;DHT22;8008;50.024;8.172;2023-03-31T15:26:45;12.60;99.90
15815;DHT22;8008;50.024;8.172;2023-03-31T15:29:21;12.80;99.90
15815;DHT22;8008;50.024;8.172;2023-03-31T15:31:50;12.70;99.90
15815;DHT22;8008;50.024;8.172;2023-03-31T15:34:21;12.60;99.90
15815;DHT22;8008;50.024;8.172;2023-03-31T15:36:54;12.50;99.90
15815;DHT22;8008;50.024;8.172;2023-03-31T15:39:24;12.50;99.90
15815;DHT22;8008;50.024;8.172;2023-03-31T15:41:53;12.50;99.90
15815;DHT22;8008;50.024;8.172;2023-03-31T15:44:36;12.50;99.90
15815;DHT22;8008;50.024;8.172;2023-03-31T15:47:11;12.50;99.90
15815;DHT22;8008;50.024;8.172;2023-03-31T15:49:47;12.50;99.90
15815;DHT22;8008;50.024;8.172;2023-03-31T15:52:27;12.60;99.90
15815;DHT22;8008;50.024;8.172;2023-03-31T15:54:57;12.60;99.90
15815;DHT22;8008;50.024;8.172;2023-03-31T15:57:33;12.60;99.90
15815;DHT22;8008;50.024;8.172;2023-03-31T16:00:03;12.60;99.90
15815;DHT22;8008;50.024;8.172;2023-03-31T16:02:42;12.50;99.90
15815;DHT22;8008;50.024;8.172;2023-03-31T16:05:24;12.50;99.90
15815;DHT22;8008;50.024;8.172;2023-03-31T16:07:54;12.60;99.90
15815;DHT22;8008;50.024;8.172;2023-03-31T16:10:24;12.50;99.90
15815;DHT22;8008;50.024;8.172;2023-03-31T16:12:56;12.60;99.90
15815;DHT22;8008;50.024;8.172;2023-03-31T16:15:29;12.60;99.90
15815;DHT22;8008;50.024;8.172;2023-03-31T16:18:00;12.70;99.90
15815;DHT22;8008;50.024;8.172;2023-03-31T16:20:31;12.70;99.90
15815;DHT22;8008;50.024;8.172;2023-03-31T16:23:12;12.60;99.90
15815;DHT22;8008;50.024;8.172;2023-03-31T16:25:41;12.50;99.90
15815;DHT22;8008;50.024;8.172;2023-03-31T16:28:13;12.60;99.90
15815;DHT22;8008;50.024;8.172;2023-03-31T16:30:43;12.60;99.90
15815;DHT22;8008;50.024;8.172;2023-03-31T16:33:13;12.60;99.90
15815;DHT22;8008;50.024;8.172;2023-03-31T16:35:42;12.60;99.90
15815;DHT22;8008;50.024;8.172;2023-03-31T16:38:11;12.60;99.90
15815;DHT22;8008;50.024;8.172;2023-03-31T16:40:44;12.60;99.90
15815;DHT22;8008;50.024;8.172;2023-03-31T16:43:13;12.60;99.90
15815;DHT22;8008;50.024;8.172;2023-03-31T16:45:43;12.50;99.90
15815;DHT22;8008;50.024;8.172;2023-03-31T16:48:12;12.50;99.90
15815;DHT22;8008;50.024;8.172;2023-03-31T16:50:43;12.50;99.90
15815;DHT22;8008;50.024;8.172;2023-03-31T16:53:11;12.50;99.90
15815;DHT22;8008;50.024;8.172;2023-03-31T16:55:40;12.50;99.90
15815;DHT22;8008;50.024;8.172;2023-03-31T16:58:10;12.40;99.90
15815;DHT22;8008;50.024;8.172;2023-03-31T17:00:38;12.40;99.90
15815;DHT22;8008;50.024;8.172;2023-03-31T17:03:08;12.40;99.90
15815;DHT22;8008;50.024;8.172;2023-03-31T17:05:37;12.40;99.90
15815;DHT22;8008;50.024;8.172;2023-03-31T17:08:05;12.40;99.90
15815;DHT22;8008;50.024;8.172;2023-03-31T17:10:34;12.40;99.90
15815;DHT22;8008;50.024;8.172;2023-03-31T17:13:02;12.40;99.90
15815;DHT22;8008;50.024;8.172;2023-03-31T17:15:31;12.40;99.90
15815;DHT22;8008;50.024;8.172;2023-03-31T17:18:02;12.40;99.90
15815;DHT22;8008;50.024;8.172;2023-03-31T17:20:30;12.30;99.90
15815;DHT22;8008;50.024;8.172;2023-03-31T17:23:00;12.30;99.90
15815;DHT22;8008;50.024;8.172;2023-03-31T17:25:28;12.30;99.90
15815;DHT22;8008;50.024;8.172;2023-03-31T17:27:56;12.30;99.90
15815;DHT22;8008;50.024;8.172;2023-03-31T17:30:26;12.30;99.90
15815;DHT22;8008;50.024;8.172;2023-03-31T17:32:55;12.30;99.90
15815;DHT22;8008;50.024;8.172;2023-03-31T17:35:24;12.30;99.90
15815;DHT22;8008;50.024;8.172;2023-03-31T17:37:52;12.20;99.90
15815;DHT22;8008;50.024;8.172;2023-03-31T17:40:21;12.20;99.90
15815;DHT22;8008;50.024;8.172;2023-03-31T17:42:52;12.20;99.90
15815;DHT22;8008;50.024;8.172;2023-03-31T17:45:20;12.30;99.90
15815;DHT22;8008;50.024;8.172;2023-03-31T17:47:48;12.30;99.90
15815;DHT22;8008;50.024;8.172;2023-03-31T17:50:18;12.30;99.90
15815;DHT22;8008;50.024;8.172;2023-03-31T17:52:46;12.30;99.90
15815;DHT22;8008;50.024;8.172;2023-03-31T17:55:14;12.20;99.90
15815;DHT22;8008;50.024;8.172;2023-03-31T17:57:42;12.30;99.90
15815;DHT22;8008;50.024;8.172;2023-03-31T18:00:11;12.20;99.90
15815;DHT22;8008;50.024;8.172;2023-03-31T18:02:41;12.20;99.90
15815;DHT22;8008;50.024;8.172;2023-03-31T18:05:09;12.20;99.90
15815;DHT22;8008;50.024;8.172;2023-03-31T18:07:39;12.10;99.90
15815;DHT22;8008;50.024;8.172;2023-03-31T18:10:08;12.10;99.90
15815;DHT22;8008;50.024;8.172;2023-03-31T18:12:36;12.00;99.90
15815;DHT22;8008;50.024;8.172;2023-03-31T18:15:05;11.90;99.90
15815;DHT22;8008;50.024;8.172;2023-03-31T18:17:33;11.90;99.90
15815;DHT22;8008;50.024;8.172;2023-03-31T18:20:02;11.80;99.90
15815;DHT22;8008;50.024;8.172;2023-03-31T18:22:31;11.70;99.90
15815;DHT22;8008;50.024;8.172;2023-03-31T18:25:00;11.60;99.90
15815;DHT22;8008;50.024;8.172;2023-03-31T18:27:28;11.60;99.90
15815;DHT22;8008;50.024;8.172;2023-03-31T18:29:56;11.60;99.90
15815;DHT22;8008;50.024;8.172;2023-03-31T18:32:25;11.50;99.90
15815;DHT22;8008;50.024;8.172;2023-03-31T18:34:54;11.50;99.90
15815;DHT22;8008;50.024;8.172;2023-03-31T18:37:22;11.40;99.90
15815;DHT22;8008;50.024;8.172;2023-03-31T18:39:50;11.40;99.90
15815;DHT22;8008;50.024;8.172;2023-03-31T18:42:20;11.40;99.90
15815;DHT22;8008;50.024;8.172;2023-03-31T18:44:51;11.30;99.90
15815;DHT22;8008;50.024;8.172;2023-03-31T18:47:19;11.30;99.90
15815;DHT22;8008;50.024;8.172;2023-03-31T18:49:47;11.30;99.90
15815;DHT22;8008;50.024;8.172;2023-03-31T18:52:19;11.30;99.90
15815;DHT22;8008;50.024;8.172;2023-03-31T18:54:47;11.30;99.90
15815;DHT22;8008;50.024;8.172;2023-03-31T18:57:17;11.30;99.90
15815;DHT22;8008;50.024;8.172;2023-03-31T18:59:46;11.30;99.90
15815;DHT22;8008;50.024;8.172;2023-03-31T19:02:15;11.30;99.90
15815;DHT22;8008;50.024;8.172;2023-03-31T19:04:44;11.30;99.90
15815;DHT22;8008;50.024;8.172;2023-03-31T19:07:12;11.30;99.90
15815;DHT22;8008;50.024;8.172;2023-03-31T19:09:40;11.40;99.90
15815;DHT22;8008;50.024;8.172;2023-03-31T19:12:08;11.40;99.90
15815;DHT22;8008;50.024;8.172;2023-03-31T19:14:37;11.40;99.90
15815;DHT22;8008;50.024;8.172;2023-03-31T19:17:07;11.30;99.90
15815;DHT22;8008;50.024;8.172;2023-03-31T19:19:35;11.30;99.90
15815;DHT22;8008;50.024;8.172;2023-03-31T19:22:03;11.30;99.90
15815;DHT22;8008;50.024;8.172;2023-03-31T19:24:31;11.30;99.90
15815;DHT22;8008;50.024;8.172;2023-03-31T19:26:59;11.30;99.90
15815;DHT22;8008;50.024;8.172;2023-03-31T19:29:28;11.20;99.90
15815;DHT22;8008;50.024;8.172;2023-03-31T19:31:57;11.20;99.90
15815;DHT22;8008;50.024;8.172;2023-03-31T19:34:27;11.20;99.90
15815;DHT22;8008;50.024;8.172;2023-03-31T19:36:55;11.20;99.90